KHOB/HOB METAR and TAF weather

Enter ICAO airport designator
Station Type Date Time Source
KHOB METAR 2019/06/17 12:50 UTC NOAA

KHOB 171250Z 10010KT 10SM OVC033 19/17 A3004


Station Type Date Time Source
KHOB Decoded METAR 2019/06/17 12:50 UTC NOAA

Hobbs / Lea County, NM, United States (KHOB) 32-41N 103-13W
Jun 17, 2019 - 08:50 AM EDT / 2019.06.17 1250 UTC
Wind: from the E (100 degrees) at 12 MPH (10 KT):0
Visibility: 10 mile(s):0
Sky conditions: overcast
Temperature: 66 F (19 C)
Dew Point: 62 F (17 C)
Relative Humidity: 88%
Pressure (altimeter): 30.04 in. Hg (1017 hPa)
ob: KHOB 171250Z 10010KT 10SM OVC033 19/17 A3004
cycle: 13

Station Type Date Time Source
KHOB TAF 2019/06/17 12:27 UTC NOAA

TAF KHOB 171124Z 1712/1812 10009KT P6SM SCT025 BKN035
TEMPO 1712/1715 BKN025
FM171800 14014G20KT P6SM SCT045
TEMPO 1721/1801 VRB25G35KT 5SM -TSRA BKN025CB
FM180100 16010KT P6SM BKN250

Example: see airport list